38OH weather

Industry Air Park
Baltimore, Ohio, United States

Public forecast

Using degrees Fahrenheit for public forecast. Weather courtesy of forecast.io.

Closest aviation weather report (METAR) to Industry Air Park

Closest report is Fairfield County Airport, 6.4 nm (11.9 km) SSW. Retrieved 2020/07/02 11:53 UTC (43 minutes ago):

KLHQ 021153Z AUTO 00000KT 10SM CLR 21/18 A3002 RMK AO2 SLP159 T02110178 10211 20161 51012

Closest aviation forecast (TAF) to Industry Air Park

Closest forecast is Rickenbacker International Airport, 16.2 nm (29.9 km) W. Retrieved 2020/07/02 12:26 UTC (10 minutes ago):

TAF KLCK 021120Z 0212/0312 04006KT P6SM FEW050 FM030000 VRB03KT P6SM SKC